EDDM

Munich International Airport

Munich, Germany
METAR EDDM 152150Z 09003KT CAVOK 15/13 Q1021 NOSIG
Observed Flight Rules
Aug-15 @ 21:50 UTC (36 minutes ago) Visual Flight Rules
Wind Visibility Clouds
90° at 3 knots 10,000+ meters
  • Clear skies
Temperatures Readings
Current 15°C / 59°F
Dewpoint 13°C / 55°F
Humidity 88%
Altimeter 30.15" Hg
Pressure 1021 hPa
Elevation 447
METAR EDDM 152150Z 09003KT CAVOK 15/13 Q1021 NOSIG
Observed Flight Rules
Aug-15 @ 21:50 UTC
(36 minutes ago)
VFR
Wind Visibility
90° at 3 knots 10,000+ meters
Clouds
  • Clear skies
Temperature Dewpoint
15°C / 59°F 13°C / 55°F
Humidity Altimeter Pressure
88% 30.15" Hg 1021 hPa